createdAt,value
2022-11-24T00:01:15.732Z,8.23
2022-11-24T00:18:57.649Z,6.83
2022-11-24T00:21:27.422Z,8.97
2022-11-24T00:23:55.989Z,12.87
2022-11-24T00:26:25.493Z,5.27
2022-11-24T00:28:55.413Z,8.83
2022-11-24T00:31:25.102Z,7.87
2022-11-24T00:33:57.090Z,15.80
2022-11-24T00:36:27.041Z,11.63
2022-11-24T00:38:55.730Z,12.33
2022-11-24T00:41:24.357Z,11.50
2022-11-24T00:43:52.846Z,5.93
2022-11-24T00:46:21.658Z,12.10
2022-11-24T00:48:50.147Z,8.63
2022-11-24T00:51:21.318Z,12.03
2022-11-24T00:53:49.657Z,7.70
2022-11-24T00:56:18.128Z,17.07
2022-11-24T00:58:46.693Z,16.10
2022-11-24T01:01:16.382Z,9.80
2022-11-24T01:03:44.859Z,10.37
2022-11-24T01:06:15.378Z,7.00
2022-11-24T01:08:45.637Z,15.33
2022-11-24T01:11:16.814Z,4.60
2022-11-24T01:13:46.110Z,7.63
2022-11-24T01:16:19.508Z,5.90
2022-11-24T01:18:48.236Z,7.27
2022-11-24T01:21:17.103Z,10.97
2022-11-24T01:23:46.971Z,7.87
2022-11-24T01:26:17.398Z,7.53
2022-11-24T01:28:47.396Z,17.53
2022-11-24T01:31:16.895Z,8.67
2022-11-24T01:33:45.364Z,7.13
2022-11-24T01:36:13.700Z,10.47
2022-11-24T01:38:41.839Z,3.53
2022-11-24T01:41:14.053Z,10.47
2022-11-24T01:43:42.833Z,9.00
2022-11-24T01:46:17.897Z,7.73
2022-11-24T01:48:50.940Z,4.90
2022-11-24T01:51:23.138Z,10.83
2022-11-24T01:53:56.362Z,13.03
2022-11-24T01:56:26.512Z,11.37
2022-11-24T01:58:58.756Z,15.90
2022-11-24T02:01:27.834Z,10.33
2022-11-24T02:03:56.326Z,9.90
2022-11-24T02:06:28.646Z,9.93
2022-11-24T02:08:59.969Z,4.33
2022-11-24T02:11:34.366Z,5.33
2022-11-24T02:14:02.926Z,7.10
2022-11-24T02:16:31.451Z,10.57
2022-11-24T02:18:59.871Z,5.57
2022-11-24T02:21:27.949Z,11.87
2022-11-24T02:24:03.482Z,11.20
2022-11-24T02:26:41.279Z,10.10
2022-11-24T02:29:10.634Z,13.33
2022-11-24T02:31:39.377Z,8.27
2022-11-24T02:34:07.732Z,7.90
2022-11-24T02:36:36.031Z,5.97
2022-11-24T02:39:04.387Z,11.07
2022-11-24T02:41:33.915Z,15.63
2022-11-24T02:44:03.261Z,7.43
2022-11-24T02:46:31.751Z,10.23
2022-11-24T02:49:00.082Z,7.70
2022-11-24T02:51:29.613Z,5.83
2022-11-24T02:53:57.948Z,4.47
2022-11-24T02:56:27.397Z,13.17
2022-11-24T02:58:56.840Z,7.73
2022-11-24T03:01:25.262Z,5.17
2022-11-24T03:03:53.354Z,14.73
2022-11-24T03:06:21.625Z,7.30
2022-11-24T03:08:50.151Z,10.50
2022-11-24T03:11:18.450Z,12.33
2022-11-24T03:13:46.837Z,9.13
2022-11-24T03:16:16.316Z,11.53
2022-11-24T03:18:44.797Z,9.83
2022-11-24T03:21:12.773Z,9.63
2022-11-24T03:23:41.163Z,4.00
2022-11-24T03:26:10.039Z,8.43
2022-11-24T03:28:38.536Z,13.67
2022-11-24T03:31:08.997Z,8.23
2022-11-24T03:33:38.939Z,16.43
2022-11-24T03:36:08.590Z,11.63
2022-11-24T03:38:36.963Z,11.87
2022-11-24T03:41:05.453Z,6.93
2022-11-24T03:43:35.878Z,9.80
2022-11-24T03:46:06.228Z,7.20
2022-11-24T03:48:34.601Z,13.50
2022-11-24T03:51:04.395Z,8.20
2022-11-24T03:53:33.749Z,8.07
2022-11-24T03:56:02.430Z,10.63
2022-11-24T03:58:31.825Z,3.67
2022-11-24T04:00:59.962Z,16.80
2022-11-24T04:03:28.444Z,11.00
2022-11-24T04:05:56.782Z,11.63
2022-11-24T04:08:26.182Z,15.87
2022-11-24T04:10:55.524Z,11.87
2022-11-24T04:13:25.529Z,8.93
2022-11-24T04:15:54.013Z,7.07
2022-11-24T04:18:22.612Z,12.30
2022-11-24T04:20:51.707Z,9.57
2022-11-24T04:23:19.990Z,9.63
2022-11-24T04:25:49.443Z,15.90
2022-11-24T04:28:17.763Z,15.40
2022-11-24T04:30:45.756Z,14.33
2022-11-24T04:33:14.364Z,9.50
2022-11-24T04:35:42.717Z,11.57
2022-11-24T04:38:11.054Z,8.90
2022-11-24T04:40:39.393Z,4.80
2022-11-24T04:43:08.796Z,4.77
2022-11-24T04:45:37.151Z,10.93
2022-11-24T04:48:05.508Z,13.27
2022-11-24T04:50:33.812Z,7.63
2022-11-24T04:53:02.174Z,8.40
2022-11-24T04:55:30.512Z,12.23
2022-11-24T04:57:58.854Z,8.13
2022-11-24T05:00:28.244Z,11.83
2022-11-24T05:02:56.766Z,6.80
2022-11-24T05:05:25.103Z,7.57
2022-11-24T05:07:53.223Z,15.60
2022-11-24T05:10:37.276Z,4.67
2022-11-24T05:13:07.707Z,8.93
2022-11-24T05:15:38.065Z,10.90
2022-11-24T05:18:07.050Z,13.73
2022-11-24T05:20:35.559Z,10.73
2022-11-24T05:23:04.429Z,10.60
2022-11-24T05:25:32.860Z,17.73
2022-11-24T05:28:02.369Z,12.47
2022-11-24T05:30:31.341Z,10.97
2022-11-24T05:33:05.621Z,7.63
2022-11-24T05:35:33.695Z,14.53
2022-11-24T05:38:02.042Z,6.50
2022-11-24T05:40:30.315Z,10.23
2022-11-24T05:42:58.597Z,7.57
2022-11-24T05:45:26.907Z,9.70
2022-11-24T05:47:55.286Z,5.73
2022-11-24T05:50:24.722Z,7.17
2022-11-24T05:52:53.015Z,12.87
2022-11-24T05:55:21.659Z,18.67
2022-11-24T05:57:50.028Z,14.20
2022-11-24T06:00:20.173Z,17.90
2022-11-24T06:02:48.609Z,9.63
2022-11-24T06:05:17.065Z,11.00
2022-11-24T06:07:46.781Z,11.07
2022-11-24T06:10:15.435Z,14.53
2022-11-24T06:12:43.805Z,8.00
2022-11-24T06:15:12.772Z,20.13
2022-11-24T06:17:41.244Z,7.43
2022-11-24T06:20:10.626Z,12.57
2022-11-24T06:22:39.225Z,17.97
2022-11-24T06:25:10.027Z,10.63
2022-11-24T06:27:38.066Z,7.47
2022-11-24T06:30:07.163Z,16.47
2022-11-24T06:32:35.528Z,6.67
2022-11-24T06:35:03.970Z,14.67
2022-11-24T06:37:32.385Z,13.30
2022-11-24T06:40:00.643Z,16.23
2022-11-24T06:42:30.076Z,9.27
2022-11-24T06:44:58.413Z,6.87
2022-11-24T06:47:26.755Z,10.63
2022-11-24T06:49:55.053Z,10.10
2022-11-24T06:52:23.444Z,15.37
2022-11-24T06:54:51.778Z,8.87
2022-11-24T06:57:20.098Z,10.67
2022-11-24T06:59:49.591Z,19.63
2022-11-24T07:02:17.857Z,8.80
2022-11-24T07:04:46.194Z,7.33
2022-11-24T07:07:14.575Z,6.57
2022-11-24T07:09:42.986Z,13.03
2022-11-24T07:12:11.046Z,8.40
2022-11-24T07:14:39.440Z,11.83
2022-11-24T07:17:08.911Z,14.30
2022-11-24T07:19:37.221Z,14.43
2022-11-24T07:22:05.243Z,5.50
2022-11-24T07:24:33.774Z,14.70
2022-11-24T07:27:02.302Z,18.23
2022-11-24T07:29:30.325Z,23.87
2022-11-24T07:32:03.714Z,17.53
2022-11-24T07:34:34.969Z,17.53
2022-11-24T07:37:03.066Z,10.27
2022-11-24T07:39:31.454Z,15.03
2022-11-24T07:42:00.270Z,18.63
2022-11-24T07:44:28.591Z,12.77
2022-11-24T07:46:57.007Z,13.37
2022-11-24T07:49:25.317Z,17.13
2022-11-24T07:51:54.753Z,16.57
2022-11-24T07:54:23.072Z,17.73
2022-11-24T07:56:51.366Z,11.60
2022-11-24T07:59:19.404Z,18.07
2022-11-24T08:01:47.768Z,22.27
2022-11-24T08:04:15.896Z,14.13
2022-11-24T08:06:47.351Z,9.73
2022-11-24T08:09:17.232Z,9.17
2022-11-24T08:11:45.574Z,8.23
2022-11-24T08:14:13.942Z,9.87
2022-11-24T08:16:42.264Z,6.53
2022-11-24T08:19:11.982Z,7.57
2022-11-24T08:21:40.338Z,13.67
2022-11-24T08:24:09.579Z,10.93
2022-11-24T08:26:38.979Z,9.27
2022-11-24T08:29:07.281Z,5.30
2022-11-24T08:31:36.194Z,11.00
2022-11-24T08:34:05.111Z,10.80
2022-11-24T08:36:33.738Z,6.50
2022-11-24T08:39:02.595Z,6.07
2022-11-24T08:41:31.718Z,14.83
2022-11-24T08:44:01.115Z,11.20
2022-11-24T08:46:29.475Z,6.60
2022-11-24T08:48:57.816Z,4.10
2022-11-24T08:51:27.832Z,7.03
2022-11-24T08:53:58.298Z,11.10
2022-11-24T08:56:27.619Z,5.10
2022-11-24T08:58:56.504Z,9.20
2022-11-24T09:01:26.866Z,3.50
2022-11-24T09:03:55.526Z,7.27
2022-11-24T09:06:25.916Z,3.97
2022-11-24T09:08:55.634Z,7.70
2022-11-24T09:11:24.152Z,4.27
2022-11-24T09:13:52.568Z,4.63
2022-11-24T09:16:22.868Z,4.07
2022-11-24T09:18:58.066Z,4.07
2022-11-24T09:21:26.418Z,5.87
2022-11-24T09:23:55.594Z,3.93
2022-11-24T09:26:25.468Z,6.67
2022-11-24T09:28:55.452Z,6.70
2022-11-24T09:31:25.728Z,4.20
2022-11-24T09:33:54.373Z,7.87
2022-11-24T09:36:24.597Z,4.40
2022-11-24T09:38:52.999Z,8.37
2022-11-24T09:41:39.002Z,3.77
2022-11-24T09:44:12.593Z,12.33
2022-11-24T09:46:50.706Z,7.47
2022-11-24T09:49:25.240Z,3.80
2022-11-24T09:51:57.338Z,5.97
2022-11-24T09:54:29.384Z,3.60
2022-11-24T09:57:01.778Z,5.57
2022-11-24T09:59:29.975Z,6.00
2022-11-24T10:01:58.535Z,4.20
2022-11-24T10:04:29.621Z,4.30
2022-11-24T10:07:07.959Z,6.13
2022-11-24T10:09:46.597Z,4.23
2022-11-24T10:12:37.815Z,3.87
2022-11-24T10:15:30.506Z,5.00
2022-11-24T10:18:34.868Z,4.67
2022-11-24T10:21:16.115Z,6.93
2022-11-24T10:23:59.107Z,4.50
2022-11-24T10:26:35.983Z,4.47
2022-11-24T10:29:16.708Z,2.90
2022-11-24T10:31:46.920Z,3.50
2022-11-24T10:34:18.000Z,3.97
2022-11-24T10:36:51.659Z,4.70
2022-11-24T10:39:28.231Z,5.83
2022-11-24T10:42:04.142Z,3.20
2022-11-24T10:44:32.438Z,8.20
2022-11-24T10:47:00.774Z,4.97
2022-11-24T10:49:33.589Z,6.20
2022-11-24T10:52:08.717Z,7.37
2022-11-24T10:54:54.092Z,3.93
2022-11-24T10:57:29.520Z,3.60
2022-11-24T10:59:57.826Z,8.97
2022-11-24T11:02:35.271Z,8.80
2022-11-24T11:05:41.799Z,4.27
2022-11-24T11:08:22.118Z,5.83
2022-11-24T11:10:54.715Z,3.87
2022-11-24T11:13:28.462Z,3.73
2022-11-24T11:15:57.657Z,4.03
2022-11-24T11:18:31.714Z,7.70
2022-11-24T11:21:02.166Z,7.90
2022-11-24T11:23:33.522Z,6.23
2022-11-24T11:26:33.036Z,4.60
2022-11-24T11:35:05.566Z,8.60
2022-11-24T11:37:34.728Z,5.37
2022-11-24T11:40:03.570Z,19.83
2022-11-24T11:45:35.784Z,10.60
2022-11-24T11:48:21.101Z,9.87
2022-11-24T11:51:22.190Z,11.63
2022-11-24T11:53:45.803Z,6.30
2022-11-24T11:56:24.223Z,7.67
2022-11-24T11:59:19.869Z,7.20
2022-11-24T12:02:13.479Z,12.93
2022-11-24T12:04:48.472Z,11.27
2022-11-24T12:07:46.267Z,8.53
2022-11-24T12:10:24.302Z,7.73
2022-11-24T12:13:31.812Z,5.87
2022-11-24T12:16:12.517Z,5.73
2022-11-24T12:19:02.274Z,7.77
2022-11-24T12:21:36.859Z,8.67
2022-11-24T12:24:15.584Z,9.33
2022-11-24T12:26:49.078Z,8.50
2022-11-24T12:29:45.900Z,6.47
2022-11-24T12:32:30.007Z,13.20
2022-11-24T12:35:04.830Z,7.20
2022-11-24T12:37:44.327Z,8.77
2022-11-24T12:40:17.165Z,7.03
2022-11-24T12:42:53.389Z,12.77
2022-11-24T12:45:30.642Z,13.27
2022-11-24T12:48:14.775Z,7.03
2022-11-24T12:50:45.389Z,8.47
2022-11-24T12:53:17.013Z,9.67
2022-11-24T12:55:45.775Z,7.77
2022-11-24T12:58:19.617Z,10.10
2022-11-24T13:01:04.272Z,7.97
2022-11-24T13:03:46.228Z,9.00
2022-11-24T13:06:20.334Z,7.63
2022-11-24T13:08:48.546Z,8.43
2022-11-24T13:11:39.841Z,8.67
2022-11-24T13:14:13.024Z,7.23
2022-11-24T13:17:13.306Z,5.93
2022-11-24T13:19:40.576Z,7.80
2022-11-24T13:22:17.478Z,8.43
2022-11-24T13:24:45.988Z,8.30
2022-11-24T13:27:44.792Z,9.30
2022-11-24T13:30:54.151Z,6.33
2022-11-24T13:33:33.780Z,5.00
2022-11-24T13:36:53.005Z,13.20
2022-11-24T13:39:22.713Z,7.07
2022-11-24T13:42:42.579Z,10.50
2022-11-24T13:45:00.487Z,8.30
2022-11-24T13:47:52.436Z,5.67
2022-11-24T13:50:26.197Z,11.73
2022-11-24T13:53:09.367Z,7.20
2022-11-24T13:55:40.279Z,11.97
2022-11-24T13:58:38.305Z,7.90
2022-11-24T14:01:16.189Z,12.07
2022-11-24T14:04:28.696Z,5.23
2022-11-24T14:06:48.412Z,12.37
2022-11-24T14:09:37.216Z,5.27
2022-11-24T14:12:12.977Z,8.93
2022-11-24T14:14:41.496Z,10.47
2022-11-24T14:17:19.595Z,8.50
2022-11-24T14:19:49.228Z,8.63
2022-11-24T14:22:19.874Z,7.47
2022-11-24T14:24:54.516Z,7.53
2022-11-24T14:27:27.881Z,6.57
2022-11-24T14:29:57.595Z,5.80
2022-11-24T14:32:25.902Z,12.27
2022-11-24T14:34:54.521Z,5.83
2022-11-24T14:37:23.055Z,10.17
2022-11-24T14:39:53.632Z,9.90
2022-11-24T14:42:23.719Z,11.90
2022-11-24T14:44:55.680Z,6.00
2022-11-24T14:47:31.344Z,11.10
2022-11-24T14:50:10.276Z,7.43
2022-11-24T14:52:48.320Z,12.97
2022-11-24T14:55:31.266Z,15.50
2022-11-24T14:57:59.754Z,5.23
2022-11-24T15:00:30.368Z,10.10
2022-11-24T15:03:15.956Z,8.77
2022-11-24T15:05:55.708Z,10.47
2022-11-24T15:08:25.169Z,15.83
2022-11-24T15:11:00.878Z,11.20
2022-11-24T15:13:30.419Z,15.53
2022-11-24T15:16:03.258Z,20.90
2022-11-24T15:18:37.883Z,15.30
2022-11-24T15:21:06.178Z,16.47
2022-11-24T15:23:35.141Z,12.97
2022-11-24T15:26:30.741Z,9.17
2022-11-24T15:29:00.503Z,10.37
2022-11-24T15:31:28.912Z,9.73
2022-11-24T15:33:57.204Z,10.10
2022-11-24T15:36:25.533Z,4.80
2022-11-24T15:38:53.859Z,6.17
2022-11-24T15:41:23.939Z,10.27
2022-11-24T15:43:58.818Z,5.33
2022-11-24T15:46:27.586Z,5.63
2022-11-24T15:48:56.047Z,7.13
2022-11-24T15:51:27.135Z,4.57
2022-11-24T15:54:00.604Z,3.57
2022-11-24T15:56:32.801Z,7.90
2022-11-24T15:59:02.663Z,11.67
2022-11-24T16:01:32.470Z,8.00
2022-11-24T16:04:00.906Z,6.87
2022-11-24T16:06:29.272Z,9.23
2022-11-24T16:08:58.102Z,7.70
2022-11-24T16:11:26.437Z,12.47
2022-11-24T16:13:54.844Z,7.27
2022-11-24T16:16:25.659Z,7.00
2022-11-24T16:18:54.066Z,6.37
2022-11-24T16:21:23.229Z,7.50
2022-11-24T16:23:51.355Z,6.93
2022-11-24T16:26:19.624Z,3.10
2022-11-24T16:28:47.916Z,5.43
2022-11-24T16:31:16.696Z,4.50
2022-11-24T16:33:46.859Z,5.67
2022-11-24T16:36:15.277Z,10.77
2022-11-24T16:38:43.684Z,6.13
2022-11-24T16:41:11.714Z,7.70
2022-11-24T16:43:40.187Z,22.77
2022-11-24T16:46:20.363Z,12.57
2022-11-24T16:48:50.606Z,10.47
2022-11-24T16:51:19.534Z,6.40
2022-11-24T16:53:47.996Z,12.57
2022-11-24T16:56:17.577Z,9.63
2022-11-24T16:58:45.900Z,6.10
2022-11-24T17:01:15.022Z,6.40
2022-11-24T17:03:43.465Z,9.53
2022-11-24T17:06:15.797Z,9.63
2022-11-24T17:08:44.847Z,9.00
2022-11-24T17:11:14.288Z,6.77
2022-11-24T17:13:42.905Z,7.10
2022-11-24T17:16:12.729Z,6.70
2022-11-24T17:18:41.620Z,8.77
2022-11-24T17:21:11.716Z,9.20
2022-11-24T17:23:41.310Z,6.53
2022-11-24T17:26:11.914Z,4.70
2022-11-24T17:28:40.634Z,6.97
2022-11-24T17:31:09.611Z,8.10
2022-11-24T17:33:38.283Z,13.00
2022-11-24T17:36:07.329Z,12.47
2022-11-24T17:38:36.055Z,5.20
2022-11-24T17:41:05.882Z,7.27
2022-11-24T17:43:34.225Z,3.43
2022-11-24T17:46:03.660Z,10.63
2022-11-24T17:48:32.734Z,6.27
2022-11-24T17:51:01.840Z,11.00
2022-11-24T17:53:30.134Z,9.90
2022-11-24T17:56:00.336Z,10.47
2022-11-24T17:58:30.307Z,13.97
2022-11-24T18:00:58.747Z,8.40
2022-11-24T18:03:28.699Z,6.80
2022-11-24T18:05:57.538Z,8.70
2022-11-24T18:08:26.074Z,9.03
2022-11-24T18:10:54.387Z,7.90
2022-11-24T18:13:48.948Z,6.00
2022-11-24T18:16:13.663Z,12.40
2022-11-24T18:18:46.065Z,5.80
2022-11-24T18:21:18.996Z,8.23
2022-11-24T18:23:47.323Z,13.63
2022-11-24T18:26:16.568Z,5.90
2022-11-24T18:28:45.398Z,14.23
2022-11-24T18:31:15.636Z,6.60
2022-11-24T18:33:44.730Z,12.03
2022-11-24T18:36:15.152Z,16.60
2022-11-24T18:38:43.463Z,9.80
2022-11-24T18:41:12.550Z,11.80
2022-11-24T18:43:40.874Z,10.20
2022-11-24T18:46:15.023Z,16.27
2022-11-24T18:48:45.378Z,22.97
2022-11-24T18:51:15.299Z,23.50
2022-11-24T18:53:44.118Z,29.20
2022-11-24T18:56:14.286Z,32.77
2022-11-24T18:58:42.631Z,37.53
2022-11-24T19:01:12.633Z,32.60
2022-11-24T19:03:47.830Z,33.03
2022-11-24T19:06:19.131Z,32.23
2022-11-24T19:08:47.467Z,43.20
2022-11-24T19:11:19.947Z,37.77
2022-11-24T19:13:49.101Z,33.17
2022-11-24T19:16:17.896Z,17.60
2022-11-24T19:18:50.376Z,30.43
2022-11-24T19:21:23.425Z,29.90
2022-11-24T19:23:52.148Z,20.93
2022-11-24T19:26:20.561Z,37.17
2022-11-24T19:28:49.248Z,39.33
2022-11-24T19:31:18.579Z,54.73
2022-11-24T19:33:47.115Z,29.87
2022-11-24T19:36:16.277Z,23.10
2022-11-24T19:38:50.988Z,43.17
2022-11-24T19:41:20.286Z,22.33
2022-11-24T19:43:49.003Z,7.70
2022-11-24T19:46:18.321Z,24.27
2022-11-24T19:48:48.486Z,16.07
2022-11-24T19:51:17.926Z,14.20
2022-11-24T19:53:47.871Z,12.60
2022-11-24T19:56:17.975Z,12.43
2022-11-24T19:58:46.487Z,15.80
2022-11-24T20:01:15.585Z,21.23
2022-11-24T20:03:44.489Z,25.50
2022-11-24T20:06:13.521Z,18.57
2022-11-24T20:08:42.515Z,10.33
2022-11-24T20:11:12.898Z,26.97
2022-11-24T20:13:42.034Z,23.80
2022-11-24T20:16:11.733Z,34.90
2022-11-24T20:18:42.437Z,13.60
2022-11-24T20:21:12.092Z,21.60
2022-11-24T20:23:40.873Z,20.87
2022-11-24T20:26:09.879Z,38.03
2022-11-24T20:28:39.642Z,18.40
2022-11-24T20:31:09.118Z,31.50
2022-11-24T20:33:38.008Z,38.20
2022-11-24T20:36:07.427Z,13.03
2022-11-24T20:38:35.913Z,8.87
2022-11-24T20:41:08.946Z,10.03
2022-11-24T20:43:37.685Z,7.77
2022-11-24T20:46:09.106Z,4.60
2022-11-24T20:48:38.247Z,7.43
2022-11-24T20:51:07.115Z,10.47
2022-11-24T20:53:35.846Z,5.33
2022-11-24T20:56:06.316Z,4.93
2022-11-24T20:58:35.627Z,5.43
2022-11-24T21:01:09.163Z,6.10
2022-11-24T21:03:42.858Z,4.57
2022-11-24T21:06:12.156Z,13.20
2022-11-24T21:08:41.799Z,4.57
2022-11-24T21:11:11.345Z,6.27
2022-11-24T21:13:40.760Z,9.47
2022-11-24T21:16:17.993Z,4.10
2022-11-24T21:18:46.955Z,4.23
2022-11-24T21:21:15.857Z,1.87
2022-11-24T21:23:45.068Z,3.57
2022-11-24T21:26:16.960Z,6.10
2022-11-24T21:28:46.559Z,6.37
2022-11-24T21:31:16.149Z,8.93
2022-11-24T21:33:46.596Z,7.23
2022-11-24T21:36:15.842Z,7.43
2022-11-24T21:38:44.393Z,4.67
2022-11-24T21:41:14.030Z,10.47
2022-11-24T21:43:42.433Z,4.70
2022-11-24T21:46:12.090Z,6.23
2022-11-24T21:48:41.294Z,8.20
2022-11-24T21:51:14.375Z,5.10
2022-11-24T21:53:43.207Z,3.57
2022-11-24T21:56:14.090Z,1.97
2022-11-24T21:58:46.693Z,11.37
2022-11-24T22:01:15.413Z,4.40
2022-11-24T22:03:43.821Z,8.30
2022-11-24T22:06:13.915Z,7.50
2022-11-24T22:08:42.714Z,10.67
2022-11-24T22:11:13.475Z,8.17
2022-11-24T22:13:42.017Z,9.03
2022-11-24T22:16:11.451Z,8.00
2022-11-24T22:18:40.766Z,5.10
2022-11-24T22:21:09.751Z,6.67
2022-11-24T22:23:39.672Z,4.90
2022-11-24T22:26:12.304Z,3.53
2022-11-24T22:28:40.708Z,4.33
2022-11-24T22:31:09.797Z,14.33
2022-11-24T22:33:38.131Z,4.93
2022-11-24T22:36:07.402Z,5.97
2022-11-24T22:38:35.984Z,2.37
2022-11-24T22:41:06.406Z,5.40
2022-11-24T22:43:35.233Z,4.97
2022-11-24T22:46:07.167Z,5.17
2022-11-24T22:48:35.651Z,5.00
2022-11-24T22:51:05.564Z,11.90
2022-11-24T22:53:33.939Z,5.17
2022-11-24T22:56:03.126Z,4.83
2022-11-24T22:58:33.561Z,3.10
2022-11-24T23:01:06.212Z,5.63
2022-11-24T23:03:35.372Z,6.23
2022-11-24T23:06:03.938Z,1.60
2022-11-24T23:08:33.872Z,5.60
2022-11-24T23:11:02.631Z,11.13
2022-11-24T23:13:30.976Z,1.70
2022-11-24T23:16:04.224Z,3.60
2022-11-24T23:18:32.987Z,4.43
2022-11-24T23:21:05.944Z,8.10
2022-11-24T23:23:34.315Z,3.90
2022-11-24T23:26:02.959Z,2.93
2022-11-24T23:28:31.509Z,2.20
2022-11-24T23:31:02.680Z,8.40
2022-11-24T23:33:32.614Z,1.73
2022-11-24T23:36:02.925Z,6.03
2022-11-24T23:38:32.754Z,5.40
2022-11-24T23:41:02.365Z,4.80
2022-11-24T23:43:30.768Z,1.60
2022-11-24T23:46:02.924Z,5.30
2022-11-24T23:48:32.709Z,5.03
2022-11-24T23:51:05.053Z,8.17
2022-11-24T23:53:33.657Z,1.93
2022-11-24T23:56:02.157Z,3.30
2022-11-24T23:58:30.543Z,3.00
